Kcso Sentry — SHERIFF — position and weather

sailwx.info

Track history (hours):
 
Tides and Currents Weather Stations Pressure Air Temp Water Temp Dewpoint Dewpoint Depression Visibility Wind Speed Wind Dir Waves Ship Positions

Kcso Sentry

Last reported at 2017-Oct-17 16:28 UTC. Time now 2017-Nov-23 01:53 UTC.
Position N 38°05' W 122°15'.
Warning: this ship's position is 36 days out of date.

Length 14 m.

Type: Law enforcement. MMSI: 338132577.

Date/timePositionNaut miles runAvg speedWind from/ knotsBaromVisibWave heightAir tempDewpointWater temp
2017-Oct-17 16:28N 38°05' W 122°15'1 0.0
2017-Oct-16 21:08N 38°04' W 122°15'1 0.5
2017-Oct-16 18:21N 38°04' W 122°13'  
2017-Oct-10 18:51N 38°04' W 122°13'924.7
2017-Oct-10 18:30N 38°01' W 122°23'1121.7
2017-Oct-10 18:01N 37°50' W 122°22'15 0.4
2017-Oct-09 00:24N 37°35' W 122°19'3 7.3
2017-Oct-09 00:00N 37°38' W 122°19'1119.7
2017-Oct-08 23:28N 37°48' W 122°24'0 0.1
2017-Oct-08 22:51N 37°48' W 122°24'1 4.0
2017-Oct-08 22:30N 37°49' W 122°25'0 0.2
2017-Oct-08 22:00N 37°49' W 122°25'0 0.1
2017-Oct-08 21:29N 37°49' W 122°25'0 0.1
2017-Oct-08 21:00N 37°49' W 122°25'0 0.0
2017-Oct-08 20:27N 37°49' W 122°25'0 0.0
2017-Oct-08 20:00N 37°49' W 122°25'0 0.1
2017-Oct-08 19:30N 37°49' W 122°25'1 1.5
2017-Oct-08 19:00N 37°48' W 122°26'2 3.5
2017-Oct-08 18:30N 37°48' W 122°24'1319.8
2017-Oct-08 17:49N 37°35' W 122°19'0 0.0
2017-Oct-08 17:25N 37°35' W 122°19'0 0.0
2017-Oct-08 00:39N 37°35' W 122°19'1 5.1
2017-Oct-08 00:29N 37°36' W 122°19'1325.4
2017-Oct-08 00:00N 37°48' W 122°24'431.8
2017-Oct-07 23:52N 37°48' W 122°18'513.4
2017-Oct-07 23:31N 37°49' W 122°24'152.3
2017-Oct-07 23:30N 37°48' W 122°24'1 1.4
2017-Oct-07 23:01N 37°49' W 122°24'129.3
2017-Oct-07 22:59N 37°48' W 122°24'2 3.9
2017-Oct-07 22:30N 37°49' W 122°26'1183.3
2017-Oct-07 22:30N 37°49' W 122°26'1 1.2
2017-Oct-07 22:00N 37°49' W 122°26'170.0
2017-Oct-07 22:00N 37°49' W 122°26'1 1.2
2017-Oct-07 21:30N 37°49' W 122°25'184.1
2017-Oct-07 21:30N 37°49' W 122°25'1 1.2
2017-Oct-07 21:00N 37°49' W 122°25'1 7.4
2017-Oct-07 20:56N 37°49' W 122°25'1 1.3
2017-Oct-07 20:30N 37°49' W 122°25'114.1
2017-Oct-07 20:28N 37°49' W 122°25'1 1.4
2017-Oct-07 20:00N 37°49' W 122°25'1242.0
2017-Oct-07 20:00N 37°49' W 122°25'1 1.3
2017-Oct-07 19:30N 37°49' W 122°26'1 5.8
2017-Oct-07 19:23N 37°49' W 122°25'1 1.7
2017-Oct-07 19:00N 37°49' W 122°25'1 9.3
2017-Oct-07 18:57N 37°49' W 122°25'1 1.5
2017-Oct-07 18:30N 37°49' W 122°26'333.5
2017-Oct-07 18:25N 37°47' W 122°23'3 7.5
2017-Oct-07 18:00N 37°49' W 122°26'1552.0
2017-Oct-07 17:43N 37°35' W 122°19'1569.3
2017-Oct-07 17:30N 37°49' W 122°27'1552.3
2017-Oct-07 17:13N 37°35' W 122°19'1466.6
2017-Oct-07 17:01N 37°49' W 122°25'14165.0
2017-Oct-07 16:55N 37°35' W 122°19'  
Track history (hours):
 
Tides and Currents Weather Stations Pressure Air Temp Water Temp Dewpoint Dewpoint Depression Visibility Wind Speed Wind Dir Waves Ship Positions

Kcso Sentry

Last reported at 2017-Oct-17 16:28 UTC. Time now 2017-Nov-23 01:53 UTC.
Position N 38°05' W 122°15'.
Warning: this ship's position is 36 days out of date.

Length 14 m.

Type: Law enforcement. MMSI: 338132577.

Date/timePositionNaut miles runAvg speedWind from/ knotsBaromVisibWave heightAir tempDewpointWater temp
2017-Oct-17 16:28N 38°05' W 122°15'1 0.0
2017-Oct-16 21:08N 38°04' W 122°15'1 0.5
2017-Oct-16 18:21N 38°04' W 122°13'  
2017-Oct-10 18:51N 38°04' W 122°13'924.7
2017-Oct-10 18:30N 38°01' W 122°23'1121.7
2017-Oct-10 18:01N 37°50' W 122°22'15 0.4
2017-Oct-09 00:24N 37°35' W 122°19'3 7.3
2017-Oct-09 00:00N 37°38' W 122°19'1119.7
2017-Oct-08 23:28N 37°48' W 122°24'0 0.1
2017-Oct-08 22:51N 37°48' W 122°24'1 4.0
2017-Oct-08 22:30N 37°49' W 122°25'0 0.2
2017-Oct-08 22:00N 37°49' W 122°25'0 0.1
2017-Oct-08 21:29N 37°49' W 122°25'0 0.1
2017-Oct-08 21:00N 37°49' W 122°25'0 0.0
2017-Oct-08 20:27N 37°49' W 122°25'0 0.0
2017-Oct-08 20:00N 37°49' W 122°25'0 0.1
2017-Oct-08 19:30N 37°49' W 122°25'1 1.5
2017-Oct-08 19:00N 37°48' W 122°26'2 3.5
2017-Oct-08 18:30N 37°48' W 122°24'1319.8
2017-Oct-08 17:49N 37°35' W 122°19'0 0.0
2017-Oct-08 17:25N 37°35' W 122°19'0 0.0
2017-Oct-08 00:39N 37°35' W 122°19'1 5.1
2017-Oct-08 00:29N 37°36' W 122°19'1325.4
2017-Oct-08 00:00N 37°48' W 122°24'431.8
2017-Oct-07 23:52N 37°48' W 122°18'513.4
2017-Oct-07 23:31N 37°49' W 122°24'152.3
2017-Oct-07 23:30N 37°48' W 122°24'1 1.4
2017-Oct-07 23:01N 37°49' W 122°24'129.3
2017-Oct-07 22:59N 37°48' W 122°24'2 3.9
2017-Oct-07 22:30N 37°49' W 122°26'1183.3
2017-Oct-07 22:30N 37°49' W 122°26'1 1.2
2017-Oct-07 22:00N 37°49' W 122°26'170.0
2017-Oct-07 22:00N 37°49' W 122°26'1 1.2
2017-Oct-07 21:30N 37°49' W 122°25'184.1
2017-Oct-07 21:30N 37°49' W 122°25'1 1.2
2017-Oct-07 21:00N 37°49' W 122°25'1 7.4
2017-Oct-07 20:56N 37°49' W 122°25'1 1.3
2017-Oct-07 20:30N 37°49' W 122°25'114.1
2017-Oct-07 20:28N 37°49' W 122°25'1 1.4
2017-Oct-07 20:00N 37°49' W 122°25'1242.0
2017-Oct-07 20:00N 37°49' W 122°25'1 1.3
2017-Oct-07 19:30N 37°49' W 122°26'1 5.8
2017-Oct-07 19:23N 37°49' W 122°25'1 1.7
2017-Oct-07 19:00N 37°49' W 122°25'1 9.3
2017-Oct-07 18:57N 37°49' W 122°25'1 1.5
2017-Oct-07 18:30N 37°49' W 122°26'333.5
2017-Oct-07 18:25N 37°47' W 122°23'3 7.5
2017-Oct-07 18:00N 37°49' W 122°26'1552.0
2017-Oct-07 17:43N 37°35' W 122°19'1569.3
2017-Oct-07 17:30N 37°49' W 122°27'1552.3
2017-Oct-07 17:13N 37°35' W 122°19'1466.6
2017-Oct-07 17:01N 37°49' W 122°25'14165.0
2017-Oct-07 16:55N 37°35' W 122°19'  

Dump ship's entire track history